sensor_id;sensor_type;location;lat;lon;timestamp;temperature;humidity
52849;DHT22;38714;53.180;5.812;2023-06-10T00:01:22;17.20;99.90
52849;DHT22;38714;53.180;5.812;2023-06-10T00:03:50;17.20;99.90
52849;DHT22;38714;53.180;5.812;2023-06-10T00:06:17;17.20;99.90
52849;DHT22;38714;53.180;5.812;2023-06-10T00:08:43;17.20;99.90
52849;DHT22;38714;53.180;5.812;2023-06-10T00:11:08;17.10;99.90
52849;DHT22;38714;53.180;5.812;2023-06-10T00:13:34;17.10;99.90
52849;DHT22;38714;53.180;5.812;2023-06-10T00:15:59;17.10;99.90
52849;DHT22;38714;53.180;5.812;2023-06-10T00:18:25;17.10;99.90
52849;DHT22;38714;53.180;5.812;2023-06-10T00:20:52;17.10;99.90
52849;DHT22;38714;53.180;5.812;2023-06-10T00:23:20;17.00;99.90
52849;DHT22;38714;53.180;5.812;2023-06-10T00:25:46;17.00;99.90
52849;DHT22;38714;53.180;5.812;2023-06-10T00:28:12;17.00;99.90
52849;DHT22;38714;53.180;5.812;2023-06-10T00:30:38;16.90;99.90
52849;DHT22;38714;53.180;5.812;2023-06-10T00:33:04;17.00;99.90
52849;DHT22;38714;53.180;5.812;2023-06-10T00:35:30;16.90;99.90
52849;DHT22;38714;53.180;5.812;2023-06-10T00:37:55;16.90;99.90
52849;DHT22;38714;53.180;5.812;2023-06-10T00:40:21;16.90;99.90
52849;DHT22;38714;53.180;5.812;2023-06-10T00:42:46;16.80;99.90
52849;DHT22;38714;53.180;5.812;2023-06-10T00:45:12;16.80;99.90
52849;DHT22;38714;53.180;5.812;2023-06-10T00:47:38;16.80;99.90
52849;DHT22;38714;53.180;5.812;2023-06-10T00:50:05;16.80;99.90
52849;DHT22;38714;53.180;5.812;2023-06-10T00:52:31;16.70;99.90
52849;DHT22;38714;53.180;5.812;2023-06-10T00:54:58;16.80;99.90
52849;DHT22;38714;53.180;5.812;2023-06-10T00:57:25;16.70;99.90
52849;DHT22;38714;53.180;5.812;2023-06-10T00:59:52;16.70;99.90
52849;DHT22;38714;53.180;5.812;2023-06-10T01:02:17;16.70;99.90
52849;DHT22;38714;53.180;5.812;2023-06-10T01:04:43;16.60;99.90
52849;DHT22;38714;53.180;5.812;2023-06-10T01:13:02;16.60;99.90
52849;DHT22;38714;53.180;5.812;2023-06-10T01:15:32;16.50;99.90
52849;DHT22;38714;53.180;5.812;2023-06-10T01:18:00;16.50;99.90
52849;DHT22;38714;53.180;5.812;2023-06-10T01:20:27;16.50;99.90
52849;DHT22;38714;53.180;5.812;2023-06-10T01:22:58;16.50;99.90
52849;DHT22;38714;53.180;5.812;2023-06-10T01:25:24;16.50;99.90
52849;DHT22;38714;53.180;5.812;2023-06-10T01:28:21;16.50;99.90
52849;DHT22;38714;53.180;5.812;2023-06-10T01:31:08;16.40;99.90
52849;DHT22;38714;53.180;5.812;2023-06-10T01:33:41;16.40;99.90
52849;DHT22;38714;53.180;5.812;2023-06-10T01:36:07;16.40;99.90
52849;DHT22;38714;53.180;5.812;2023-06-10T01:38:39;16.40;99.90
52849;DHT22;38714;53.180;5.812;2023-06-10T01:41:05;16.30;99.90
52849;DHT22;38714;53.180;5.812;2023-06-10T01:43:38;16.30;99.90
52849;DHT22;38714;53.180;5.812;2023-06-10T01:46:04;16.30;99.90
52849;DHT22;38714;53.180;5.812;2023-06-10T01:48:29;16.30;99.90
52849;DHT22;38714;53.180;5.812;2023-06-10T01:50:55;16.20;99.90
52849;DHT22;38714;53.180;5.812;2023-06-10T01:53:22;16.20;99.90
52849;DHT22;38714;53.180;5.812;2023-06-10T01:55:48;16.20;99.90
52849;DHT22;38714;53.180;5.812;2023-06-10T01:58:13;16.10;99.90
52849;DHT22;38714;53.180;5.812;2023-06-10T02:00:39;16.10;99.90
52849;DHT22;38714;53.180;5.812;2023-06-10T02:03:05;16.10;99.90
52849;DHT22;38714;53.180;5.812;2023-06-10T02:05:31;16.00;99.90
52849;DHT22;38714;53.180;5.812;2023-06-10T02:07:57;16.00;99.90
52849;DHT22;38714;53.180;5.812;2023-06-10T02:10:23;16.00;99.90
52849;DHT22;38714;53.180;5.812;2023-06-10T02:12:48;16.00;99.90
52849;DHT22;38714;53.180;5.812;2023-06-10T02:15:14;16.00;99.90
52849;DHT22;38714;53.180;5.812;2023-06-10T02:17:40;15.90;99.90
52849;DHT22;38714;53.180;5.812;2023-06-10T02:20:06;15.90;99.90
52849;DHT22;38714;53.180;5.812;2023-06-10T02:22:33;15.90;99.90
52849;DHT22;38714;53.180;5.812;2023-06-10T02:24:59;15.90;99.90
52849;DHT22;38714;53.180;5.812;2023-06-10T02:27:24;15.90;99.90
52849;DHT22;38714;53.180;5.812;2023-06-10T02:29:50;15.90;99.90
52849;DHT22;38714;53.180;5.812;2023-06-10T02:32:16;15.80;99.90
52849;DHT22;38714;53.180;5.812;2023-06-10T02:34:42;15.80;99.90
52849;DHT22;38714;53.180;5.812;2023-06-10T02:37:11;15.80;99.90
52849;DHT22;38714;53.180;5.812;2023-06-10T02:39:36;15.80;99.90
52849;DHT22;38714;53.180;5.812;2023-06-10T02:42:02;15.80;99.90
52849;DHT22;38714;53.180;5.812;2023-06-10T02:44:28;15.80;99.90
52849;DHT22;38714;53.180;5.812;2023-06-10T02:46:53;15.70;99.90
52849;DHT22;38714;53.180;5.812;2023-06-10T02:49:19;15.70;99.90
52849;DHT22;38714;53.180;5.812;2023-06-10T02:51:44;15.70;99.90
52849;DHT22;38714;53.180;5.812;2023-06-10T02:54:10;15.60;99.90
52849;DHT22;38714;53.180;5.812;2023-06-10T02:56:36;15.60;99.90
52849;DHT22;38714;53.180;5.812;2023-06-10T02:59:01;15.60;99.90
52849;DHT22;38714;53.180;5.812;2023-06-10T03:01:27;15.50;99.90
52849;DHT22;38714;53.180;5.812;2023-06-10T03:03:53;15.50;99.90
52849;DHT22;38714;53.180;5.812;2023-06-10T03:06:21;15.50;99.90
52849;DHT22;38714;53.180;5.812;2023-06-10T03:08:49;15.50;99.90
52849;DHT22;38714;53.180;5.812;2023-06-10T03:11:15;15.40;99.90
52849;DHT22;38714;53.180;5.812;2023-06-10T03:13:41;15.40;99.90
52849;DHT22;38714;53.180;5.812;2023-06-10T03:16:06;15.40;99.90
52849;DHT22;38714;53.180;5.812;2023-06-10T03:18:33;15.30;99.90
52849;DHT22;38714;53.180;5.812;2023-06-10T03:20:58;15.30;99.90
52849;DHT22;38714;53.180;5.812;2023-06-10T03:23:24;15.30;99.90
52849;DHT22;38714;53.180;5.812;2023-06-10T03:25:50;15.30;99.90
52849;DHT22;38714;53.180;5.812;2023-06-10T03:28:15;15.30;99.90
52849;DHT22;38714;53.180;5.812;2023-06-10T03:30:41;15.30;99.90
52849;DHT22;38714;53.180;5.812;2023-06-10T03:33:06;15.20;99.90
52849;DHT22;38714;53.180;5.812;2023-06-10T03:35:32;15.20;99.90
52849;DHT22;38714;53.180;5.812;2023-06-10T03:37:58;15.20;99.90
52849;DHT22;38714;53.180;5.812;2023-06-10T03:40:24;15.20;99.90
52849;DHT22;38714;53.180;5.812;2023-06-10T03:42:50;15.20;99.90
52849;DHT22;38714;53.180;5.812;2023-06-10T03:45:15;15.10;99.90
52849;DHT22;38714;53.180;5.812;2023-06-10T03:47:41;15.20;99.90
52849;DHT22;38714;53.180;5.812;2023-06-10T03:50:09;15.20;99.90
52849;DHT22;38714;53.180;5.812;2023-06-10T03:52:36;15.10;99.90
52849;DHT22;38714;53.180;5.812;2023-06-10T03:55:02;15.10;99.90
52849;DHT22;38714;53.180;5.812;2023-06-10T03:57:28;15.10;99.90
52849;DHT22;38714;53.180;5.812;2023-06-10T03:59:53;15.10;99.90
52849;DHT22;38714;53.180;5.812;2023-06-10T04:02:19;15.10;99.90
52849;DHT22;38714;53.180;5.812;2023-06-10T04:04:45;15.10;99.90
52849;DHT22;38714;53.180;5.812;2023-06-10T04:07:10;15.10;99.90
52849;DHT22;38714;53.180;5.812;2023-06-10T04:09:36;15.10;99.90
52849;DHT22;38714;53.180;5.812;2023-06-10T04:12:02;15.10;99.90
52849;DHT22;38714;53.180;5.812;2023-06-10T04:14:28;15.10;99.90
52849;DHT22;38714;53.180;5.812;2023-06-10T04:16:54;15.10;99.90
52849;DHT22;38714;53.180;5.812;2023-06-10T04:19:19;15.10;99.90
52849;DHT22;38714;53.180;5.812;2023-06-10T04:21:46;15.10;99.90
52849;DHT22;38714;53.180;5.812;2023-06-10T04:24:11;15.10;99.90
52849;DHT22;38714;53.180;5.812;2023-06-10T04:26:37;15.10;99.90
52849;DHT22;38714;53.180;5.812;2023-06-10T04:29:03;15.10;99.90
52849;DHT22;38714;53.180;5.812;2023-06-10T04:31:29;15.10;99.90
52849;DHT22;38714;53.180;5.812;2023-06-10T04:33:55;15.10;99.90
52849;DHT22;38714;53.180;5.812;2023-06-10T04:36:21;15.10;99.90
52849;DHT22;38714;53.180;5.812;2023-06-10T04:38:46;15.20;99.90
52849;DHT22;38714;53.180;5.812;2023-06-10T04:41:12;15.10;99.90
52849;DHT22;38714;53.180;5.812;2023-06-10T04:43:38;15.10;99.90
52849;DHT22;38714;53.180;5.812;2023-06-10T04:46:04;15.10;99.90
52849;DHT22;38714;53.180;5.812;2023-06-10T04:48:29;15.20;99.90
52849;DHT22;38714;53.180;5.812;2023-06-10T04:50:55;15.20;99.90
52849;DHT22;38714;53.180;5.812;2023-06-10T04:53:22;15.10;99.90
52849;DHT22;38714;53.180;5.812;2023-06-10T04:55:47;15.20;99.90
52849;DHT22;38714;53.180;5.812;2023-06-10T04:58:14;15.20;99.90
52849;DHT22;38714;53.180;5.812;2023-06-10T05:00:40;15.20;99.90
52849;DHT22;38714;53.180;5.812;2023-06-10T05:03:05;15.20;99.90
52849;DHT22;38714;53.180;5.812;2023-06-10T05:05:31;15.20;99.90
52849;DHT22;38714;53.180;5.812;2023-06-10T05:07:56;15.30;99.90
52849;DHT22;38714;53.180;5.812;2023-06-10T05:10:22;15.30;99.90
52849;DHT22;38714;53.180;5.812;2023-06-10T05:12:48;15.30;99.90
52849;DHT22;38714;53.180;5.812;2023-06-10T05:15:13;15.30;99.90
52849;DHT22;38714;53.180;5.812;2023-06-10T05:17:39;15.40;99.90
52849;DHT22;38714;53.180;5.812;2023-06-10T05:20:05;15.40;99.90
52849;DHT22;38714;53.180;5.812;2023-06-10T05:22:32;15.40;99.90
52849;DHT22;38714;53.180;5.812;2023-06-10T05:24:57;15.40;99.90
52849;DHT22;38714;53.180;5.812;2023-06-10T05:27:23;15.40;99.90
52849;DHT22;38714;53.180;5.812;2023-06-10T05:29:49;15.50;99.90
52849;DHT22;38714;53.180;5.812;2023-06-10T05:32:17;15.50;99.90
52849;DHT22;38714;53.180;5.812;2023-06-10T05:34:42;15.50;99.90
52849;DHT22;38714;53.180;5.812;2023-06-10T05:37:08;15.50;99.90
52849;DHT22;38714;53.180;5.812;2023-06-10T05:39:35;15.60;99.90
52849;DHT22;38714;53.180;5.812;2023-06-10T05:42:04;15.60;99.90
52849;DHT22;38714;53.180;5.812;2023-06-10T05:44:29;15.60;99.90
52849;DHT22;38714;53.180;5.812;2023-06-10T05:46:55;15.70;99.90
52849;DHT22;38714;53.180;5.812;2023-06-10T05:49:21;15.70;99.90
52849;DHT22;38714;53.180;5.812;2023-06-10T05:51:46;15.70;99.90
52849;DHT22;38714;53.180;5.812;2023-06-10T05:54:12;15.80;99.90
52849;DHT22;38714;53.180;5.812;2023-06-10T05:56:37;15.80;99.90
52849;DHT22;38714;53.180;5.812;2023-06-10T05:59:04;15.80;99.90
52849;DHT22;38714;53.180;5.812;2023-06-10T06:01:30;15.90;99.90
52849;DHT22;38714;53.180;5.812;2023-06-10T06:03:56;15.90;99.90
52849;DHT22;38714;53.180;5.812;2023-06-10T06:06:21;15.90;99.90
52849;DHT22;38714;53.180;5.812;2023-06-10T06:08:47;15.90;99.90
52849;DHT22;38714;53.180;5.812;2023-06-10T06:11:12;16.00;99.90
52849;DHT22;38714;53.180;5.812;2023-06-10T06:13:39;16.00;99.90
52849;DHT22;38714;53.180;5.812;2023-06-10T06:16:04;16.00;99.90
52849;DHT22;38714;53.180;5.812;2023-06-10T06:18:30;16.10;99.90
52849;DHT22;38714;53.180;5.812;2023-06-10T06:20:55;16.10;99.90
52849;DHT22;38714;53.180;5.812;2023-06-10T06:23:21;16.20;99.90
52849;DHT22;38714;53.180;5.812;2023-06-10T06:25:47;16.20;99.90
52849;DHT22;38714;53.180;5.812;2023-06-10T06:28:12;16.30;99.90
52849;DHT22;38714;53.180;5.812;2023-06-10T06:30:38;16.30;99.90
52849;DHT22;38714;53.180;5.812;2023-06-10T06:33:03;16.30;99.90
52849;DHT22;38714;53.180;5.812;2023-06-10T06:35:33;16.40;99.90
52849;DHT22;38714;53.180;5.812;2023-06-10T06:37:59;16.40;99.90
52849;DHT22;38714;53.180;5.812;2023-06-10T06:40:25;16.50;99.90
52849;DHT22;38714;53.180;5.812;2023-06-10T06:42:50;16.50;99.90
52849;DHT22;38714;53.180;5.812;2023-06-10T06:45:16;16.60;99.90
52849;DHT22;38714;53.180;5.812;2023-06-10T06:47:42;16.60;99.90
52849;DHT22;38714;53.180;5.812;2023-06-10T06:50:09;16.70;99.90
52849;DHT22;38714;53.180;5.812;2023-06-10T06:52:35;16.70;99.90
52849;DHT22;38714;53.180;5.812;2023-06-10T06:55:00;16.80;99.90
52849;DHT22;38714;53.180;5.812;2023-06-10T06:57:26;16.80;99.90
52849;DHT22;38714;53.180;5.812;2023-06-10T06:59:51;16.80;99.90
52849;DHT22;38714;53.180;5.812;2023-06-10T07:02:17;16.90;99.90
52849;DHT22;38714;53.180;5.812;2023-06-10T07:04:44;16.90;99.90
52849;DHT22;38714;53.180;5.812;2023-06-10T07:07:11;17.00;99.90
52849;DHT22;38714;53.180;5.812;2023-06-10T07:09:37;17.00;99.90
52849;DHT22;38714;53.180;5.812;2023-06-10T07:12:03;17.10;99.90
52849;DHT22;38714;53.180;5.812;2023-06-10T07:14:29;17.10;99.90
52849;DHT22;38714;53.180;5.812;2023-06-10T07:16:55;17.20;99.90
52849;DHT22;38714;53.180;5.812;2023-06-10T07:19:20;17.20;99.90
52849;DHT22;38714;53.180;5.812;2023-06-10T07:21:46;17.20;99.90
52849;DHT22;38714;53.180;5.812;2023-06-10T07:24:13;17.30;99.90
52849;DHT22;38714;53.180;5.812;2023-06-10T07:26:38;17.30;99.90
52849;DHT22;38714;53.180;5.812;2023-06-10T07:29:04;17.40;99.90
52849;DHT22;38714;53.180;5.812;2023-06-10T07:31:30;17.40;99.90
52849;DHT22;38714;53.180;5.812;2023-06-10T07:33:55;17.50;99.90
52849;DHT22;38714;53.180;5.812;2023-06-10T07:36:21;17.50;99.90
52849;DHT22;38714;53.180;5.812;2023-06-10T07:38:47;17.50;99.90
52849;DHT22;38714;53.180;5.812;2023-06-10T07:41:13;17.60;99.90
52849;DHT22;38714;53.180;5.812;2023-06-10T07:43:39;17.60;99.90
52849;DHT22;38714;53.180;5.812;2023-06-10T07:46:05;17.70;99.90
52849;DHT22;38714;53.180;5.812;2023-06-10T07:48:31;17.70;99.90
52849;DHT22;38714;53.180;5.812;2023-06-10T07:50:57;17.70;99.90
52849;DHT22;38714;53.180;5.812;2023-06-10T07:53:22;17.80;99.90
52849;DHT22;38714;53.180;5.812;2023-06-10T07:55:48;17.80;99.90
52849;DHT22;38714;53.180;5.812;2023-06-10T07:58:13;17.90;99.90
52849;DHT22;38714;53.180;5.812;2023-06-10T08:00:39;17.90;99.90
52849;DHT22;38714;53.180;5.812;2023-06-10T08:03:05;18.00;99.90
52849;DHT22;38714;53.180;5.812;2023-06-10T08:05:30;18.10;99.90
52849;DHT22;38714;53.180;5.812;2023-06-10T08:07:56;18.10;99.90
52849;DHT22;38714;53.180;5.812;2023-06-10T08:10:22;18.10;99.90
52849;DHT22;38714;53.180;5.812;2023-06-10T08:12:48;18.20;99.90
52849;DHT22;38714;53.180;5.812;2023-06-10T08:15:13;18.30;99.90
52849;DHT22;38714;53.180;5.812;2023-06-10T08:17:39;18.30;99.90
52849;DHT22;38714;53.180;5.812;2023-06-10T08:20:06;18.30;99.90
52849;DHT22;38714;53.180;5.812;2023-06-10T08:22:31;18.30;99.90
52849;DHT22;38714;53.180;5.812;2023-06-10T08:24:57;18.40;99.90
52849;DHT22;38714;53.180;5.812;2023-06-10T08:27:23;18.40;99.90
52849;DHT22;38714;53.180;5.812;2023-06-10T08:29:48;18.50;99.90
52849;DHT22;38714;53.180;5.812;2023-06-10T08:32:14;18.50;99.90
52849;DHT22;38714;53.180;5.812;2023-06-10T08:34:39;18.60;99.90
52849;DHT22;38714;53.180;5.812;2023-06-10T08:37:07;18.60;99.90
52849;DHT22;38714;53.180;5.812;2023-06-10T08:39:32;18.70;99.90
52849;DHT22;38714;53.180;5.812;2023-06-10T08:44:29;18.70;99.90
52849;DHT22;38714;53.180;5.812;2023-06-10T08:46:58;18.80;99.90
52849;DHT22;38714;53.180;5.812;2023-06-10T08:49:45;18.80;99.90
52849;DHT22;38714;53.180;5.812;2023-06-10T08:52:19;18.90;99.90
52849;DHT22;38714;53.180;5.812;2023-06-10T08:54:52;18.90;99.90
52849;DHT22;38714;53.180;5.812;2023-06-10T08:57:20;18.90;99.90
52849;DHT22;38714;53.180;5.812;2023-06-10T08:59:47;19.00;99.90
52849;DHT22;38714;53.180;5.812;2023-06-10T09:02:14;19.00;99.90
52849;DHT22;38714;53.180;5.812;2023-06-10T09:04:42;19.00;99.90
52849;DHT22;38714;53.180;5.812;2023-06-10T09:07:08;19.10;99.90
52849;DHT22;38714;53.180;5.812;2023-06-10T09:09:34;19.10;99.90
52849;DHT22;38714;53.180;5.812;2023-06-10T09:12:00;19.20;99.90
52849;DHT22;38714;53.180;5.812;2023-06-10T09:14:26;19.20;99.90
52849;DHT22;38714;53.180;5.812;2023-06-10T09:16:52;19.20;99.90
52849;DHT22;38714;53.180;5.812;2023-06-10T09:19:22;19.30;99.90
52849;DHT22;38714;53.180;5.812;2023-06-10T09:21:48;19.40;99.90
52849;DHT22;38714;53.180;5.812;2023-06-10T09:24:14;19.40;99.90
52849;DHT22;38714;53.180;5.812;2023-06-10T09:26:40;19.50;99.90
52849;DHT22;38714;53.180;5.812;2023-06-10T09:29:06;19.50;99.90
52849;DHT22;38714;53.180;5.812;2023-06-10T09:31:35;19.60;99.90
52849;DHT22;38714;53.180;5.812;2023-06-10T09:36:36;19.70;99.90
52849;DHT22;38714;53.180;5.812;2023-06-10T09:39:02;19.70;99.90
52849;DHT22;38714;53.180;5.812;2023-06-10T09:41:35;19.70;99.90
52849;DHT22;38714;53.180;5.812;2023-06-10T09:44:01;19.80;99.90
52849;DHT22;38714;53.180;5.812;2023-06-10T09:46:31;19.80;99.90
52849;DHT22;38714;53.180;5.812;2023-06-10T09:48:58;19.90;99.90
52849;DHT22;38714;53.180;5.812;2023-06-10T09:51:24;19.90;99.90
52849;DHT22;38714;53.180;5.812;2023-06-10T09:53:51;20.00;99.90
52849;DHT22;38714;53.180;5.812;2023-06-10T09:56:18;20.00;99.90
52849;DHT22;38714;53.180;5.812;2023-06-10T09:58:45;20.00;99.90
52849;DHT22;38714;53.180;5.812;2023-06-10T10:01:13;20.10;99.90
52849;DHT22;38714;53.180;5.812;2023-06-10T10:03:44;20.10;99.90
52849;DHT22;38714;53.180;5.812;2023-06-10T10:06:11;20.20;99.90
52849;DHT22;38714;53.180;5.812;2023-06-10T10:08:37;20.20;99.90
52849;DHT22;38714;53.180;5.812;2023-06-10T10:11:06;20.20;99.90
52849;DHT22;38714;53.180;5.812;2023-06-10T10:13:34;20.30;99.90
52849;DHT22;38714;53.180;5.812;2023-06-10T10:16:04;20.30;99.90
52849;DHT22;38714;53.180;5.812;2023-06-10T10:18:32;20.30;99.90
52849;DHT22;38714;53.180;5.812;2023-06-10T10:21:01;20.40;99.90
52849;DHT22;38714;53.180;5.812;2023-06-10T10:23:51;20.40;99.90
52849;DHT22;38714;53.180;5.812;2023-06-10T10:26:18;20.50;99.90
52849;DHT22;38714;53.180;5.812;2023-06-10T10:28:48;20.50;99.90
52849;DHT22;38714;53.180;5.812;2023-06-10T10:31:18;20.60;99.90
52849;DHT22;38714;53.180;5.812;2023-06-10T10:34:01;20.60;99.90
52849;DHT22;38714;53.180;5.812;2023-06-10T10:36:27;20.70;99.90
52849;DHT22;38714;53.180;5.812;2023-06-10T10:38:54;20.80;99.90
52849;DHT22;38714;53.180;5.812;2023-06-10T10:41:20;20.80;99.90
52849;DHT22;38714;53.180;5.812;2023-06-10T10:43:46;20.90;99.90
52849;DHT22;38714;53.180;5.812;2023-06-10T10:46:16;20.90;99.90
52849;DHT22;38714;53.180;5.812;2023-06-10T10:48:43;20.90;99.90
52849;DHT22;38714;53.180;5.812;2023-06-10T10:51:10;20.90;99.90
52849;DHT22;38714;53.180;5.812;2023-06-10T10:53:38;20.90;99.90
52849;DHT22;38714;53.180;5.812;2023-06-10T10:58:31;21.00;99.90
52849;DHT22;38714;53.180;5.812;2023-06-10T11:00:57;21.00;99.90
52849;DHT22;38714;53.180;5.812;2023-06-10T11:03:28;21.00;99.90
52849;DHT22;38714;53.180;5.812;2023-06-10T11:05:57;21.10;99.90
52849;DHT22;38714;53.180;5.812;2023-06-10T11:10:57;21.20;99.90
52849;DHT22;38714;53.180;5.812;2023-06-10T11:13:23;21.20;99.90
52849;DHT22;38714;53.180;5.812;2023-06-10T11:15:51;21.20;99.90
52849;DHT22;38714;53.180;5.812;2023-06-10T11:18:27;21.30;99.90
52849;DHT22;38714;53.180;5.812;2023-06-10T11:21:03;21.30;99.90
52849;DHT22;38714;53.180;5.812;2023-06-10T11:23:34;21.40;99.90
52849;DHT22;38714;53.180;5.812;2023-06-10T11:26:09;21.40;99.90
52849;DHT22;38714;53.180;5.812;2023-06-10T11:28:36;21.40;99.90
52849;DHT22;38714;53.180;5.812;2023-06-10T11:31:02;21.50;99.90
52849;DHT22;38714;53.180;5.812;2023-06-10T11:33:27;21.50;99.90
52849;DHT22;38714;53.180;5.812;2023-06-10T11:35:53;21.50;99.90
52849;DHT22;38714;53.180;5.812;2023-06-10T11:38:19;21.60;99.90
52849;DHT22;38714;53.180;5.812;2023-06-10T11:40:48;21.70;99.90
52849;DHT22;38714;53.180;5.812;2023-06-10T11:43:17;21.70;99.90
52849;DHT22;38714;53.180;5.812;2023-06-10T11:45:43;21.70;99.90
52849;DHT22;38714;53.180;5.812;2023-06-10T11:48:09;21.80;99.90
52849;DHT22;38714;53.180;5.812;2023-06-10T11:50:35;21.80;99.90
52849;DHT22;38714;53.180;5.812;2023-06-10T11:53:01;21.80;99.90
52849;DHT22;38714;53.180;5.812;2023-06-10T11:58:21;21.90;99.90
52849;DHT22;38714;53.180;5.812;2023-06-10T12:00:48;21.90;99.90
52849;DHT22;38714;53.180;5.812;2023-06-10T12:03:15;22.00;99.90
52849;DHT22;38714;53.180;5.812;2023-06-10T12:05:53;22.00;99.90
52849;DHT22;38714;53.180;5.812;2023-06-10T12:08:18;22.10;99.90
52849;DHT22;38714;53.180;5.812;2023-06-10T12:10:44;22.10;99.90
52849;DHT22;38714;53.180;5.812;2023-06-10T12:13:10;22.10;99.90
52849;DHT22;38714;53.180;5.812;2023-06-10T12:15:36;22.20;99.90
52849;DHT22;38714;53.180;5.812;2023-06-10T12:18:02;22.20;99.90
52849;DHT22;38714;53.180;5.812;2023-06-10T12:20:30;22.30;99.90
52849;DHT22;38714;53.180;5.812;2023-06-10T12:22:57;22.30;99.90
52849;DHT22;38714;53.180;5.812;2023-06-10T12:25:27;22.20;99.90
52849;DHT22;38714;53.180;5.812;2023-06-10T12:27:54;22.30;99.90
52849;DHT22;38714;53.180;5.812;2023-06-10T12:30:24;22.30;99.90
52849;DHT22;38714;53.180;5.812;2023-06-10T12:32:51;22.30;99.90
52849;DHT22;38714;53.180;5.812;2023-06-10T12:35:22;22.30;99.90
52849;DHT22;38714;53.180;5.812;2023-06-10T12:38:00;22.30;99.90
52849;DHT22;38714;53.180;5.812;2023-06-10T12:40:31;22.30;99.90
52849;DHT22;38714;53.180;5.812;2023-06-10T12:42:58;22.30;99.90
52849;DHT22;38714;53.180;5.812;2023-06-10T12:45:37;22.20;99.90
52849;DHT22;38714;53.180;5.812;2023-06-10T12:48:09;22.20;99.90
52849;DHT22;38714;53.180;5.812;2023-06-10T12:50:36;22.20;99.90
52849;DHT22;38714;53.180;5.812;2023-06-10T12:53:03;22.30;99.90
52849;DHT22;38714;53.180;5.812;2023-06-10T12:55:28;22.20;99.90
52849;DHT22;38714;53.180;5.812;2023-06-10T12:57:54;22.20;99.90
52849;DHT22;38714;53.180;5.812;2023-06-10T13:00:20;22.30;99.90
52849;DHT22;38714;53.180;5.812;2023-06-10T13:02:48;22.30;99.90
52849;DHT22;38714;53.180;5.812;2023-06-10T13:05:13;22.30;99.90
52849;DHT22;38714;53.180;5.812;2023-06-10T13:07:39;22.30;99.90
52849;DHT22;38714;53.180;5.812;2023-06-10T13:10:05;22.30;99.90
52849;DHT22;38714;53.180;5.812;2023-06-10T13:12:30;22.30;99.90
52849;DHT22;38714;53.180;5.812;2023-06-10T13:14:56;22.30;99.90
52849;DHT22;38714;53.180;5.812;2023-06-10T13:17:22;22.30;99.90
52849;DHT22;38714;53.180;5.812;2023-06-10T13:19:47;22.30;99.90
52849;DHT22;38714;53.180;5.812;2023-06-10T13:22:14;22.20;99.90
52849;DHT22;38714;53.180;5.812;2023-06-10T13:24:40;22.20;99.90
52849;DHT22;38714;53.180;5.812;2023-06-10T13:27:06;22.10;99.90
52849;DHT22;38714;53.180;5.812;2023-06-10T13:29:32;22.10;99.90
52849;DHT22;38714;53.180;5.812;2023-06-10T13:31:58;22.10;99.90
52849;DHT22;38714;53.180;5.812;2023-06-10T13:34:23;22.10;99.90
52849;DHT22;38714;53.180;5.812;2023-06-10T13:36:49;22.10;99.90
52849;DHT22;38714;53.180;5.812;2023-06-10T13:39:14;22.20;99.90
52849;DHT22;38714;53.180;5.812;2023-06-10T13:41:41;22.20;99.90
52849;DHT22;38714;53.180;5.812;2023-06-10T13:44:07;22.20;99.90
52849;DHT22;38714;53.180;5.812;2023-06-10T13:46:33;22.20;99.90
52849;DHT22;38714;53.180;5.812;2023-06-10T13:48:58;22.20;99.90
52849;DHT22;38714;53.180;5.812;2023-06-10T13:51:24;22.20;99.90
52849;DHT22;38714;53.180;5.812;2023-06-10T13:53:50;22.20;99.90
52849;DHT22;38714;53.180;5.812;2023-06-10T13:56:18;22.30;99.90
52849;DHT22;38714;53.180;5.812;2023-06-10T13:58:43;22.30;99.90
52849;DHT22;38714;53.180;5.812;2023-06-10T14:01:09;22.20;99.90
52849;DHT22;38714;53.180;5.812;2023-06-10T14:03:35;22.20;99.90
52849;DHT22;38714;53.180;5.812;2023-06-10T14:06:01;22.20;99.90
52849;DHT22;38714;53.180;5.812;2023-06-10T14:08:27;22.20;99.90
52849;DHT22;38714;53.180;5.812;2023-06-10T14:10:52;22.20;99.90
52849;DHT22;38714;53.180;5.812;2023-06-10T14:13:18;22.20;99.90
52849;DHT22;38714;53.180;5.812;2023-06-10T14:15:44;22.20;99.90
52849;DHT22;38714;53.180;5.812;2023-06-10T14:18:10;22.20;99.90
52849;DHT22;38714;53.180;5.812;2023-06-10T14:20:36;22.30;99.90
52849;DHT22;38714;53.180;5.812;2023-06-10T14:23:02;22.30;99.90
52849;DHT22;38714;53.180;5.812;2023-06-10T14:25:27;22.30;99.90
52849;DHT22;38714;53.180;5.812;2023-06-10T14:27:53;22.30;99.90
52849;DHT22;38714;53.180;5.812;2023-06-10T14:30:19;22.30;99.90
52849;DHT22;38714;53.180;5.812;2023-06-10T14:32:45;22.40;99.90
52849;DHT22;38714;53.180;5.812;2023-06-10T14:35:10;22.40;99.90
52849;DHT22;38714;53.180;5.812;2023-06-10T14:37:36;22.50;99.90
52849;DHT22;38714;53.180;5.812;2023-06-10T14:40:06;22.50;99.90
52849;DHT22;38714;53.180;5.812;2023-06-10T14:42:31;22.40;99.90
52849;DHT22;38714;53.180;5.812;2023-06-10T14:44:58;22.50;99.90
52849;DHT22;38714;53.180;5.812;2023-06-10T14:47:23;22.50;99.90
52849;DHT22;38714;53.180;5.812;2023-06-10T14:49:49;22.50;99.90
52849;DHT22;38714;53.180;5.812;2023-06-10T14:52:15;22.60;99.90
52849;DHT22;38714;53.180;5.812;2023-06-10T14:54:41;22.60;99.90
52849;DHT22;38714;53.180;5.812;2023-06-10T14:57:07;22.60;99.90
52849;DHT22;38714;53.180;5.812;2023-06-10T14:59:33;22.70;99.90
52849;DHT22;38714;53.180;5.812;2023-06-10T15:01:59;22.80;99.90
52849;DHT22;38714;53.180;5.812;2023-06-10T15:04:26;22.80;99.90
52849;DHT22;38714;53.180;5.812;2023-06-10T15:06:52;22.80;99.90
52849;DHT22;38714;53.180;5.812;2023-06-10T15:09:18;22.90;99.90
52849;DHT22;38714;53.180;5.812;2023-06-10T15:11:43;22.90;99.90
52849;DHT22;38714;53.180;5.812;2023-06-10T15:14:09;22.90;99.90
52849;DHT22;38714;53.180;5.812;2023-06-10T15:16:35;22.90;99.90
52849;DHT22;38714;53.180;5.812;2023-06-10T15:19:00;22.90;99.90
52849;DHT22;38714;53.180;5.812;2023-06-10T15:21:26;23.00;99.90
52849;DHT22;38714;53.180;5.812;2023-06-10T15:23:52;23.00;99.90
52849;DHT22;38714;53.180;5.812;2023-06-10T15:26:18;23.00;99.90
52849;DHT22;38714;53.180;5.812;2023-06-10T15:28:44;23.10;99.90
52849;DHT22;38714;53.180;5.812;2023-06-10T15:31:09;23.10;99.90
52849;DHT22;38714;53.180;5.812;2023-06-10T15:33:35;23.20;99.90
52849;DHT22;38714;53.180;5.812;2023-06-10T15:36:01;23.20;99.90
52849;DHT22;38714;53.180;5.812;2023-06-10T15:38:27;23.20;99.90
52849;DHT22;38714;53.180;5.812;2023-06-10T15:40:52;23.20;99.90
52849;DHT22;38714;53.180;5.812;2023-06-10T15:43:19;23.30;99.90
52849;DHT22;38714;53.180;5.812;2023-06-10T15:45:44;23.40;99.90